Hlavní strana
METAR-TAF:

METAR-TAF

Letiště :

Letiště Madeira

Funchal, Madeira, Portugalsko

zeměpisná šířka: 32-41-52N, zeměpisná délka: 016-46-28W, výška: 59 m

Aktuální stav počasí

Zpráva byla vytvořena před 23 minutami, v 14:30 UTC
Severoseverovýchodní vítr 15 kt, proměnlivý mezi severním a východoseverovýchodním
Teplota 26°C
Vlhkost vzduchu 58%
Tlak 1020 hPa
Viditelnost 10 km a více
Skoro jasno ve výšce 1600 ft

METAR: LPMA 121430Z 03015KT 360V060 9999 FEW016 26/17 Q1020

Čas: 15:53 (14:53 UTC)

Předpověď počasí

Zpráva byla vytvořena před 3 hodinami a 53 minutami, v 11:00 UTC
Předpověď platná od 12 v 12 UTC do 13 v 12 UTC
Severoseverovýchodní vítr 15 kt
Viditelnost 10 km a více
Polojasno ve výšce 1500 ft
Dočasný
od 12 v 12 UTC do 12 v 24 UTC
Severoseverovýchodní vítr 18 kt s nárazy do 28 kt

TAF: LPMA 121100Z 1212/1312 02015KT 9999 SCT015 TEMPO 1212/1224 02018G28KT

Stav a předpovědi počasí z více než 4 000 letišť (zprávy METAR a TAF).

Červené a žluté tečky na mapě představují dostupné meteorologické stanice.

Když kurzor umístíte na tečku, zobrazí se název stanice.

Pak kliknutím zobrazíte stav a předpověď počasí.

Chcete-li změnit mapu, kliknutím na zelené tlačítko se znaménkem +mapu přiblížíte, kliknutím na zelené tlačítko se znaménkem – mapu oddálíte a kliknutím na zelené šipky přejdete na sousední mapy.


METAR-TAF: